createdAt,value
2017-10-18T00:02:24.054Z,10.90
2017-10-18T00:04:51.534Z,12.05
2017-10-18T00:07:18.991Z,11.57
2017-10-18T00:09:46.450Z,11.20
2017-10-18T00:12:13.890Z,12.70
2017-10-18T00:14:41.332Z,12.45
2017-10-18T00:17:08.775Z,12.30
2017-10-18T00:19:36.211Z,11.45
2017-10-18T00:22:03.738Z,12.93
2017-10-18T00:24:31.173Z,13.23
2017-10-18T00:26:58.622Z,12.63
2017-10-18T00:29:26.106Z,11.85
2017-10-18T00:31:53.555Z,13.70
2017-10-18T00:34:21.011Z,11.70
2017-10-18T00:36:48.466Z,12.25
2017-10-18T00:39:15.932Z,12.60
2017-10-18T00:41:43.376Z,12.85
2017-10-18T00:44:10.834Z,13.02
2017-10-18T00:46:38.271Z,12.40
2017-10-18T00:49:05.750Z,12.90
2017-10-18T00:51:33.195Z,12.23
2017-10-18T00:54:00.644Z,12.50
2017-10-18T00:56:28.125Z,13.60
2017-10-18T00:58:55.559Z,13.40
2017-10-18T01:01:23.004Z,13.43
2017-10-18T01:03:50.486Z,12.45
2017-10-18T01:06:17.931Z,12.05
2017-10-18T01:08:45.370Z,14.00
2017-10-18T01:11:12.854Z,12.13
2017-10-18T01:13:40.312Z,12.27
2017-10-18T01:16:07.763Z,11.57
2017-10-18T01:18:35.199Z,12.18
2017-10-18T01:21:02.627Z,11.77
2017-10-18T01:23:30.939Z,11.75
2017-10-18T01:25:58.534Z,12.63
2017-10-18T01:28:25.975Z,12.73
2017-10-18T01:30:53.543Z,12.90
2017-10-18T01:33:20.987Z,12.05
2017-10-18T01:35:48.431Z,11.98
2017-10-18T01:38:15.900Z,12.82
2017-10-18T01:40:43.363Z,12.35
2017-10-18T01:43:10.907Z,12.83
2017-10-18T01:45:38.350Z,12.18
2017-10-18T01:48:05.823Z,12.48
2017-10-18T01:50:33.259Z,12.15
2017-10-18T01:53:00.706Z,11.98
2017-10-18T01:55:28.158Z,12.00
2017-10-18T01:57:55.652Z,11.60
2017-10-18T02:00:23.102Z,12.05
2017-10-18T02:02:51.326Z,12.30
2017-10-18T02:05:18.762Z,11.38
2017-10-18T02:07:46.202Z,12.70
2017-10-18T02:10:13.710Z,12.45
2017-10-18T02:12:41.251Z,11.82
2017-10-18T02:15:08.687Z,12.50
2017-10-18T02:17:36.127Z,12.30
2017-10-18T02:20:03.899Z,11.32
2017-10-18T02:22:31.351Z,11.50
2017-10-18T02:24:59.566Z,11.30
2017-10-18T02:27:27.123Z,10.80
2017-10-18T02:29:54.551Z,10.63
2017-10-18T02:32:22.009Z,11.05
2017-10-18T02:34:49.486Z,11.50
2017-10-18T02:37:16.953Z,10.90
2017-10-18T02:39:44.514Z,11.02
2017-10-18T02:42:11.951Z,11.17
2017-10-18T02:44:39.414Z,10.75
2017-10-18T02:47:06.871Z,11.20
2017-10-18T02:49:34.409Z,11.75
2017-10-18T02:52:01.827Z,10.80
2017-10-18T02:54:30.059Z,11.27
2017-10-18T02:56:57.491Z,10.75
2017-10-18T02:59:24.949Z,11.68
2017-10-18T03:01:52.382Z,11.33
2017-10-18T03:04:19.915Z,10.13
2017-10-18T03:06:47.443Z,10.65
2017-10-18T03:09:14.924Z,11.60
2017-10-18T03:11:42.377Z,11.32
2017-10-18T03:14:09.913Z,11.87
2017-10-18T03:16:37.350Z,11.75
2017-10-18T03:19:04.830Z,11.07
2017-10-18T03:21:32.274Z,11.77
2017-10-18T03:23:59.812Z,12.55
2017-10-18T03:26:27.263Z,11.40
2017-10-18T03:28:54.746Z,12.52
2017-10-18T03:31:22.201Z,11.50
2017-10-18T03:33:49.639Z,12.13
2017-10-18T03:36:17.096Z,12.23
2017-10-18T03:38:44.584Z,12.73
2017-10-18T03:41:12.026Z,13.00
2017-10-18T03:43:39.469Z,13.02
2017-10-18T03:46:06.943Z,12.45
2017-10-18T03:48:34.414Z,12.70
2017-10-18T03:51:01.858Z,12.60
2017-10-18T03:53:29.387Z,12.93
2017-10-18T03:55:56.875Z,12.60
2017-10-18T03:58:24.311Z,12.07
2017-10-18T04:00:51.798Z,12.85
2017-10-18T04:03:19.234Z,12.43
2017-10-18T04:05:46.798Z,12.40
2017-10-18T04:08:14.254Z,14.00
2017-10-18T04:10:41.715Z,13.60
2017-10-18T04:13:09.182Z,12.93
2017-10-18T04:15:36.627Z,16.85
2017-10-18T04:18:04.066Z,12.30
2017-10-18T04:20:31.530Z,12.88
2017-10-18T04:22:58.957Z,12.75
2017-10-18T04:25:26.467Z,12.45
2017-10-18T04:27:53.912Z,11.85
2017-10-18T04:30:21.446Z,12.50
2017-10-18T04:32:48.883Z,12.77
2017-10-18T04:35:16.317Z,13.18
2017-10-18T04:37:44.552Z,12.68
2017-10-18T04:40:12.017Z,12.88
2017-10-18T04:42:39.454Z,12.80
2017-10-18T04:45:06.906Z,12.80
2017-10-18T04:47:34.326Z,12.70
2017-10-18T04:50:02.566Z,12.75
2017-10-18T04:52:30.114Z,12.40
2017-10-18T04:54:57.571Z,11.65
2017-10-18T04:57:25.026Z,13.13
2017-10-18T04:59:52.486Z,12.50
2017-10-18T05:02:19.946Z,12.10
2017-10-18T05:04:47.389Z,13.20
2017-10-18T05:07:14.851Z,11.80
2017-10-18T05:09:42.281Z,12.40
2017-10-18T05:12:09.778Z,12.73
2017-10-18T05:14:37.210Z,11.60
2017-10-18T05:17:04.668Z,12.27
2017-10-18T05:19:32.128Z,12.48
2017-10-18T05:21:59.565Z,12.20
2017-10-18T05:24:27.040Z,12.37
2017-10-18T05:26:54.487Z,11.38
2017-10-18T05:29:22.896Z,11.97
2017-10-18T05:31:50.437Z,13.40
2017-10-18T05:34:17.880Z,11.50
2017-10-18T05:36:45.427Z,11.82
2017-10-18T05:39:12.912Z,13.02
2017-10-18T05:41:40.472Z,12.73
2017-10-18T05:44:07.919Z,11.35
2017-10-18T05:46:35.368Z,11.20
2017-10-18T05:49:02.845Z,12.73
2017-10-18T05:51:30.307Z,12.30
2017-10-18T05:53:57.742Z,12.75
2017-10-18T05:56:25.179Z,12.23
2017-10-18T05:58:52.634Z,12.88
2017-10-18T06:01:20.110Z,12.50
2017-10-18T06:03:47.568Z,11.90
2017-10-18T06:06:15.001Z,12.27
2017-10-18T06:08:42.444Z,12.60
2017-10-18T06:11:09.888Z,12.13
2017-10-18T06:13:38.194Z,11.93
2017-10-18T06:16:05.620Z,13.23
2017-10-18T06:18:33.834Z,12.55
2017-10-18T06:21:01.283Z,11.20
2017-10-18T06:23:28.739Z,13.57
2017-10-18T06:25:56.179Z,12.10
2017-10-18T06:28:23.644Z,13.20
2017-10-18T06:30:51.094Z,12.75
2017-10-18T06:33:18.620Z,12.18
2017-10-18T06:35:47.944Z,11.90
2017-10-18T06:38:15.390Z,12.18
2017-10-18T06:40:43.598Z,12.20
2017-10-18T06:43:11.072Z,11.77
2017-10-18T06:45:38.530Z,11.75
2017-10-18T06:48:05.980Z,11.98
2017-10-18T06:50:33.458Z,12.30
2017-10-18T06:53:01.007Z,12.60
2017-10-18T06:55:28.540Z,12.68
2017-10-18T06:57:55.971Z,11.75
2017-10-18T07:00:23.491Z,12.20
2017-10-18T07:02:50.935Z,12.05
2017-10-18T07:05:18.466Z,11.50
2017-10-18T07:07:45.947Z,12.25
2017-10-18T07:10:13.399Z,11.50
2017-10-18T07:12:40.838Z,11.63
2017-10-18T07:15:08.322Z,12.30
2017-10-18T07:17:35.850Z,12.88
2017-10-18T07:20:03.343Z,12.57
2017-10-18T07:22:30.815Z,11.90
2017-10-18T07:24:59.090Z,12.45
2017-10-18T07:27:26.726Z,14.87
2017-10-18T07:29:54.167Z,11.38
2017-10-18T07:32:21.642Z,11.70
2017-10-18T07:34:49.201Z,12.32
2017-10-18T07:37:16.756Z,11.90
2017-10-18T07:39:44.226Z,11.02
2017-10-18T07:42:11.698Z,11.90
2017-10-18T07:44:39.119Z,12.80
2017-10-18T07:47:06.579Z,11.98
2017-10-18T07:49:34.044Z,11.57
2017-10-18T07:52:01.482Z,10.38
2017-10-18T07:54:28.938Z,11.57
2017-10-18T07:56:56.394Z,11.57
2017-10-18T07:59:23.872Z,11.57
2017-10-18T08:01:51.310Z,11.35
2017-10-18T08:04:18.766Z,11.00
2017-10-18T08:06:46.326Z,11.70
2017-10-18T08:09:13.795Z,12.60
2017-10-18T08:11:41.249Z,10.60
2017-10-18T08:14:08.701Z,10.50
2017-10-18T08:16:36.258Z,10.15
2017-10-18T08:19:03.698Z,10.45
2017-10-18T08:21:31.167Z,11.82
2017-10-18T08:23:58.635Z,11.35
2017-10-18T08:26:26.162Z,11.75
2017-10-18T08:28:53.817Z,12.10
2017-10-18T08:31:21.292Z,11.20
2017-10-18T08:33:48.734Z,12.68
2017-10-18T08:36:16.191Z,11.82
2017-10-18T08:38:43.624Z,11.40
2017-10-18T08:41:11.138Z,12.20
2017-10-18T08:43:38.581Z,12.15
2017-10-18T08:46:06.022Z,13.27
2017-10-18T08:48:33.474Z,12.57
2017-10-18T08:51:00.903Z,12.37
2017-10-18T08:53:28.490Z,11.90
2017-10-18T08:55:55.919Z,12.98
2017-10-18T08:58:23.400Z,11.65
2017-10-18T09:00:50.828Z,11.75
2017-10-18T09:03:19.034Z,12.98
2017-10-18T09:05:46.505Z,14.40
2017-10-18T09:08:13.982Z,12.60
2017-10-18T09:10:41.459Z,12.88
2017-10-18T09:13:09.754Z,13.80
2017-10-18T09:15:38.001Z,13.93
2017-10-18T09:18:05.501Z,13.68
2017-10-18T09:20:32.969Z,13.82
2017-10-18T09:23:00.578Z,14.07
2017-10-18T09:25:28.047Z,16.50
2017-10-18T09:27:56.285Z,14.15
2017-10-18T09:30:23.766Z,16.40
2017-10-18T09:32:51.329Z,13.10
2017-10-18T09:35:18.800Z,14.95
2017-10-18T09:37:47.085Z,14.38
2017-10-18T09:40:14.874Z,14.43
2017-10-18T09:42:42.310Z,14.30
2017-10-18T09:45:09.751Z,13.62
2017-10-18T09:47:37.210Z,12.77
2017-10-18T09:50:05.096Z,13.60
2017-10-18T09:52:32.546Z,13.80
2017-10-18T09:55:00.035Z,14.93
2017-10-18T09:57:27.469Z,13.70
2017-10-18T09:59:54.919Z,13.33
2017-10-18T10:02:22.419Z,12.25
2017-10-18T10:04:49.904Z,13.95
2017-10-18T10:07:18.144Z,13.77
2017-10-18T10:09:46.407Z,14.52
2017-10-18T10:12:13.850Z,13.65
2017-10-18T10:14:41.335Z,12.65
2017-10-18T10:17:08.766Z,14.32
2017-10-18T10:19:36.215Z,13.95
2017-10-18T10:22:03.656Z,13.93
2017-10-18T10:24:31.115Z,13.30
2017-10-18T10:26:58.560Z,14.27
2017-10-18T10:29:26.077Z,12.82
2017-10-18T10:31:53.510Z,11.83
2017-10-18T10:34:20.972Z,12.85
2017-10-18T10:36:48.424Z,13.30
2017-10-18T10:39:15.862Z,14.90
2017-10-18T10:41:43.308Z,12.18
2017-10-18T10:44:10.825Z,11.77
2017-10-18T10:46:38.335Z,11.75
2017-10-18T10:49:05.751Z,11.77
2017-10-18T10:51:34.067Z,12.40
2017-10-18T10:54:01.490Z,11.63
2017-10-18T10:56:29.698Z,12.15
2017-10-18T10:58:57.172Z,12.63
2017-10-18T11:01:24.638Z,13.45
2017-10-18T11:03:52.074Z,11.60
2017-10-18T11:06:19.544Z,12.82
2017-10-18T11:08:46.994Z,11.70
2017-10-18T11:11:14.630Z,8.95
2017-10-18T11:13:42.147Z,7.22
2017-10-18T11:16:09.586Z,9.32
2017-10-18T11:18:37.134Z,10.02
2017-10-18T11:21:04.627Z,8.05
2017-10-18T11:23:32.239Z,10.85
2017-10-18T11:25:59.680Z,8.40
2017-10-18T11:28:27.121Z,9.75
2017-10-18T11:30:54.567Z,8.52
2017-10-18T11:33:22.787Z,8.65
2017-10-18T11:35:51.336Z,8.75
2017-10-18T11:38:18.834Z,9.55
2017-10-18T11:40:46.266Z,9.57
2017-10-18T11:43:13.750Z,8.75
2017-10-18T11:45:41.202Z,11.23
2017-10-18T11:48:08.659Z,9.38
2017-10-18T11:50:36.098Z,9.80
2017-10-18T11:53:03.534Z,9.52
2017-10-18T11:55:30.970Z,8.88
2017-10-18T11:57:59.174Z,9.52
2017-10-18T12:00:26.605Z,9.13
2017-10-18T12:02:54.058Z,10.43
2017-10-18T12:05:22.250Z,10.45
2017-10-18T12:07:49.755Z,14.90
2017-10-18T12:10:17.192Z,7.10
2017-10-18T12:12:44.634Z,6.93
2017-10-18T12:15:12.078Z,6.20
2017-10-18T12:17:39.527Z,6.60
2017-10-18T12:20:06.982Z,6.93
2017-10-18T12:22:34.492Z,7.22
2017-10-18T12:25:01.933Z,7.37
2017-10-18T12:27:29.357Z,7.18
2017-10-18T12:29:56.795Z,13.00
2017-10-18T12:32:25.101Z,7.03
2017-10-18T12:34:52.518Z,6.47
2017-10-18T12:37:20.734Z,6.90
2017-10-18T12:39:48.599Z,7.05
2017-10-18T12:42:16.074Z,6.90
2017-10-18T12:44:43.510Z,6.30
2017-10-18T12:47:10.943Z,6.47
2017-10-18T12:49:38.390Z,7.15
2017-10-18T12:52:05.903Z,5.78
2017-10-18T12:54:33.326Z,6.60
2017-10-18T12:57:00.775Z,5.70
2017-10-18T12:59:28.406Z,5.22
2017-10-18T13:01:55.840Z,4.85
2017-10-18T13:04:23.274Z,4.67
2017-10-18T13:06:50.705Z,4.35
2017-10-18T13:09:18.182Z,5.25
2017-10-18T13:11:45.624Z,5.40
2017-10-18T13:14:13.088Z,4.82
2017-10-18T13:16:40.571Z,4.12
2017-10-18T13:19:08.025Z,4.50
2017-10-18T13:21:35.474Z,4.50
2017-10-18T13:24:02.930Z,5.30
2017-10-18T13:26:30.360Z,4.60
2017-10-18T13:28:57.803Z,4.40
2017-10-18T13:31:25.302Z,5.30
2017-10-18T13:33:52.764Z,3.85
2017-10-18T13:36:20.198Z,4.45
2017-10-18T13:38:48.680Z,4.40
2017-10-18T13:41:16.247Z,5.00
2017-10-18T13:43:43.716Z,5.00
2017-10-18T13:46:11.247Z,5.12
2017-10-18T13:48:38.722Z,6.18
2017-10-18T13:51:06.174Z,5.65
2017-10-18T13:53:33.618Z,4.70
2017-10-18T13:56:01.051Z,4.72
2017-10-18T13:58:29.267Z,3.70
2017-10-18T14:00:56.714Z,5.00
2017-10-18T14:03:24.183Z,3.87
2017-10-18T14:05:51.846Z,3.90
2017-10-18T14:08:19.294Z,4.78
2017-10-18T14:10:46.775Z,5.57
2017-10-18T14:13:14.417Z,5.32
2017-10-18T14:15:41.888Z,6.12
2017-10-18T14:18:09.335Z,5.22
2017-10-18T14:20:36.791Z,5.40
2017-10-18T14:23:04.242Z,5.60
2017-10-18T14:25:31.692Z,4.90
2017-10-18T14:27:59.162Z,5.05
2017-10-18T14:30:26.615Z,5.17
2017-10-18T14:32:54.048Z,7.25
2017-10-18T14:35:21.535Z,3.92
2017-10-18T14:37:48.971Z,5.47
2017-10-18T14:40:16.420Z,5.15
2017-10-18T14:42:44.083Z,6.78
2017-10-18T14:45:11.500Z,4.97
2017-10-18T14:47:39.814Z,4.80
2017-10-18T14:50:07.252Z,4.80
2017-10-18T14:52:34.754Z,5.43
2017-10-18T14:55:02.302Z,4.82
2017-10-18T14:57:29.755Z,4.95
2017-10-18T14:59:57.227Z,4.90
2017-10-18T15:02:24.751Z,4.82
2017-10-18T15:04:52.185Z,4.97
2017-10-18T15:07:19.635Z,5.10
2017-10-18T15:09:47.086Z,5.12
2017-10-18T15:12:15.379Z,5.70
2017-10-18T15:14:42.842Z,5.55
2017-10-18T15:17:10.318Z,6.50
2017-10-18T15:19:37.769Z,6.60
2017-10-18T15:22:05.452Z,6.07
2017-10-18T15:24:32.908Z,6.28
2017-10-18T15:27:00.335Z,7.03
2017-10-18T15:29:27.779Z,5.70
2017-10-18T15:31:55.249Z,7.37
2017-10-18T15:34:22.679Z,6.15
2017-10-18T15:36:50.111Z,6.87
2017-10-18T15:39:17.681Z,5.97
2017-10-18T15:41:45.135Z,6.70
2017-10-18T15:44:12.554Z,7.67
2017-10-18T15:46:40.030Z,6.78
2017-10-18T15:49:07.490Z,8.50
2017-10-18T15:51:34.943Z,7.07
2017-10-18T15:54:02.474Z,7.37
2017-10-18T15:56:29.931Z,7.70
2017-10-18T15:58:58.311Z,6.07
2017-10-18T16:03:32.079Z,6.93
2017-10-18T16:06:00.315Z,7.05
2017-10-18T16:08:27.745Z,6.80
2017-10-18T16:10:55.237Z,7.00
2017-10-18T16:13:22.866Z,6.93
2017-10-18T16:15:50.298Z,6.82
2017-10-18T16:18:17.779Z,6.57
2017-10-18T16:20:45.235Z,6.53
2017-10-18T16:23:12.680Z,7.80
2017-10-18T16:25:40.133Z,6.65
2017-10-18T16:28:07.574Z,6.30
2017-10-18T16:30:35.017Z,6.18
2017-10-18T16:33:03.248Z,6.20
2017-10-18T16:35:30.682Z,6.45
2017-10-18T16:37:58.167Z,7.30
2017-10-18T16:40:25.621Z,8.02
2017-10-18T16:42:53.050Z,7.40
2017-10-18T16:45:20.488Z,7.30
2017-10-18T16:47:47.982Z,6.95
2017-10-18T16:50:15.449Z,7.53
2017-10-18T16:52:42.883Z,6.75
2017-10-18T16:55:10.325Z,6.57
2017-10-18T16:57:37.750Z,9.57
2017-10-18T17:00:06.090Z,8.48
2017-10-18T17:02:33.546Z,7.65
2017-10-18T17:05:01.010Z,8.20
2017-10-18T17:07:28.447Z,7.70
2017-10-18T17:09:55.906Z,8.30
2017-10-18T17:12:23.411Z,8.32
2017-10-18T17:14:51.621Z,8.75
2017-10-18T17:17:19.050Z,8.70
2017-10-18T17:19:46.487Z,9.20
2017-10-18T17:22:14.812Z,8.50
2017-10-18T17:24:42.294Z,8.55
2017-10-18T17:27:09.930Z,9.40
2017-10-18T17:29:37.440Z,9.75
2017-10-18T17:32:04.875Z,8.40
2017-10-18T17:34:32.319Z,9.20
2017-10-18T17:36:59.759Z,7.57
2017-10-18T17:39:27.232Z,9.50
2017-10-18T17:41:54.697Z,7.40
2017-10-18T17:44:22.262Z,9.20
2017-10-18T17:46:49.806Z,8.40
2017-10-18T17:49:17.270Z,8.38
2017-10-18T17:51:44.759Z,8.00
2017-10-18T17:54:13.053Z,8.70
2017-10-18T17:56:40.583Z,9.00
2017-10-18T17:59:08.865Z,8.73
2017-10-18T18:01:37.099Z,10.07
2017-10-18T18:04:04.524Z,10.05
2017-10-18T18:06:32.070Z,11.30
2017-10-18T18:08:59.565Z,10.27
2017-10-18T18:11:27.032Z,10.00
2017-10-18T18:13:54.487Z,9.50
2017-10-18T18:16:21.962Z,9.20
2017-10-18T18:18:49.559Z,9.75
2017-10-18T18:21:17.032Z,9.40
2017-10-18T18:23:44.483Z,9.27
2017-10-18T18:26:11.985Z,12.02
2017-10-18T18:28:39.450Z,9.70
2017-10-18T18:31:06.899Z,9.82
2017-10-18T18:33:34.420Z,9.98
2017-10-18T18:36:01.912Z,10.25
2017-10-18T18:38:29.362Z,10.40
2017-10-18T18:40:56.879Z,9.50
2017-10-18T18:43:24.366Z,10.25
2017-10-18T18:45:51.799Z,9.40
2017-10-18T18:48:19.221Z,10.43
2017-10-18T18:50:47.451Z,11.27
2017-10-18T18:53:14.940Z,9.95
2017-10-18T18:55:42.474Z,11.18
2017-10-18T18:58:09.930Z,10.57
2017-10-18T19:00:37.384Z,11.88
2017-10-18T19:03:04.826Z,11.15
2017-10-18T19:05:32.262Z,11.55
2017-10-18T19:07:59.696Z,11.50
2017-10-18T19:10:27.902Z,10.63
2017-10-18T19:12:55.337Z,12.80
2017-10-18T19:15:22.775Z,11.73
2017-10-18T19:17:50.990Z,11.27
2017-10-18T19:20:18.426Z,11.40
2017-10-18T19:22:45.870Z,11.73
2017-10-18T19:25:14.083Z,11.23
2017-10-18T19:27:41.556Z,10.77
2017-10-18T19:30:09.057Z,11.77
2017-10-18T19:32:37.369Z,10.63
2017-10-18T19:35:04.829Z,11.27
2017-10-18T19:37:32.254Z,10.73
2017-10-18T19:40:00.550Z,11.10
2017-10-18T19:42:28.006Z,11.20
2017-10-18T19:44:55.488Z,11.00
2017-10-18T19:47:23.042Z,12.20
2017-10-18T19:49:50.486Z,11.20
2017-10-18T19:52:17.964Z,11.07
2017-10-18T19:54:45.522Z,11.23
2017-10-18T19:57:13.186Z,11.40
2017-10-18T19:59:40.638Z,12.18
2017-10-18T20:02:08.202Z,11.30
2017-10-18T20:04:35.734Z,11.50
2017-10-18T20:07:03.174Z,11.27
2017-10-18T20:09:30.646Z,11.65
2017-10-18T20:11:58.387Z,10.97
2017-10-18T20:14:25.909Z,11.50
2017-10-18T20:16:53.470Z,11.25
2017-10-18T20:19:20.917Z,11.55
2017-10-18T20:21:48.439Z,11.70
2017-10-18T20:24:15.928Z,12.70
2017-10-18T20:26:43.406Z,11.63
2017-10-18T20:29:10.935Z,11.38
2017-10-18T20:31:38.387Z,11.90
2017-10-18T20:34:05.872Z,11.20
2017-10-18T20:36:33.425Z,12.18
2017-10-18T20:39:01.687Z,11.38
2017-10-18T20:41:29.902Z,12.00
2017-10-18T20:43:57.424Z,12.07
2017-10-18T20:46:24.875Z,11.32
2017-10-18T20:48:52.318Z,13.07
2017-10-18T20:51:19.758Z,12.13
2017-10-18T20:53:47.474Z,11.27
2017-10-18T20:56:15.139Z,11.23
2017-10-18T20:58:43.355Z,11.40
2017-10-18T21:01:10.849Z,10.63
2017-10-18T21:03:38.404Z,11.70
2017-10-18T21:06:05.856Z,11.65
2017-10-18T21:08:33.491Z,11.87
2017-10-18T21:11:00.939Z,11.48
2017-10-18T21:13:28.374Z,12.50
2017-10-18T21:15:55.954Z,12.70
2017-10-18T21:18:23.443Z,12.75
2017-10-18T21:20:50.998Z,12.82
2017-10-18T21:23:18.458Z,12.10
2017-10-18T21:25:45.901Z,14.30
2017-10-18T21:28:13.347Z,12.13
2017-10-18T21:30:40.813Z,12.90
2017-10-18T21:33:08.274Z,13.65
2017-10-18T21:35:35.707Z,12.32
2017-10-18T21:38:03.154Z,12.52
2017-10-18T21:40:30.603Z,12.10
2017-10-18T21:42:58.058Z,13.30
2017-10-18T21:45:25.572Z,13.23
2017-10-18T21:47:53.022Z,13.98
2017-10-18T21:50:20.462Z,13.30
2017-10-18T21:52:47.899Z,13.27
2017-10-18T21:55:15.469Z,13.90
2017-10-18T21:57:42.970Z,13.05
2017-10-18T22:00:11.210Z,12.50
2017-10-18T22:02:38.659Z,12.80
2017-10-18T22:05:06.102Z,13.82
2017-10-18T22:07:33.583Z,13.60
2017-10-18T22:10:01.030Z,12.88
2017-10-18T22:12:28.475Z,12.93
2017-10-18T22:14:55.914Z,13.38
2017-10-18T22:17:23.351Z,13.65
2017-10-18T22:19:51.562Z,14.85
2017-10-18T22:22:19.027Z,13.82
2017-10-18T22:24:46.471Z,13.15
2017-10-18T22:27:13.955Z,14.98
2017-10-18T22:29:41.403Z,14.87
2017-10-18T22:32:08.855Z,13.60
2017-10-18T22:34:36.648Z,14.43
2017-10-18T22:37:07.444Z,15.20
2017-10-18T22:39:34.955Z,13.50
2017-10-18T22:42:03.162Z,14.90
2017-10-18T22:44:30.649Z,15.00
2017-10-18T22:46:58.210Z,15.13
2017-10-18T22:49:25.663Z,14.02
2017-10-18T22:51:53.116Z,14.65
2017-10-18T22:54:20.559Z,14.80
2017-10-18T22:56:48.005Z,14.43
2017-10-18T22:59:15.491Z,13.95
2017-10-18T23:01:42.973Z,14.10
2017-10-18T23:04:10.382Z,14.60
2017-10-18T23:06:37.826Z,13.50
2017-10-18T23:09:05.419Z,14.50
2017-10-18T23:11:32.891Z,14.55
2017-10-18T23:14:00.434Z,13.60
2017-10-18T23:16:28.878Z,14.40
2017-10-18T23:18:56.321Z,15.07
2017-10-18T23:21:24.638Z,14.00
2017-10-18T23:23:52.162Z,15.90
2017-10-18T23:26:19.663Z,15.85
2017-10-18T23:28:47.095Z,16.90
2017-10-18T23:31:14.547Z,15.55
2017-10-18T23:33:42.022Z,16.70
2017-10-18T23:36:09.576Z,14.30
2017-10-18T23:38:37.006Z,14.70
2017-10-18T23:41:04.457Z,15.60
2017-10-18T23:43:31.946Z,15.05
2017-10-18T23:45:59.382Z,14.90
2017-10-18T23:48:26.871Z,15.18
2017-10-18T23:50:54.331Z,15.38
2017-10-18T23:53:21.783Z,15.55
2017-10-18T23:55:49.234Z,15.50
2017-10-18T23:58:16.703Z,15.10
